Leesburg, FL (34748)

12:33 PM EST on January 30, 2015 (GMT -0500)
Cypress Creek | Change Station
CLOSE
Current Station
Personal Weather Station
Location: Leesburg, FL
Elevation: 82 ft
Nearby Weather Stations

Elev 82 ft 28.77 °N, 81.88 °W | Updated 3 seconds ago

Overcast
Overcast
65.7 °F
Feels Like 65.7 °F
N
4.0
Wind Variable Wind from WNW
Gusts 4.9 mph

Today
High -- | Low -- °F
--% Chance of Precip.
Yesterday
High -- | Low -- °F
Precip. -- in
7:17 AM 6:04 PM
Waxing Gibbous, 84% visible
Pressure 30.20 in
Visibility 10.0 miles
Clouds Mostly Cloudy 2000 ft
Overcast 2500 ft
Dew Point 60 °F
Humidity 82%
Rainfall 0.00 in
Snow Depth Not available.
UV 2 out of 12
Pollen 9.70 out of 12
Air Quality Not available.
Flu Activity Not available.
METAR KLEE 301653Z 31006KT 10SM BKN020 OVC025 18/13 A3020 RMK AO2 SLP225 T01780133

More Conditions Fewer Conditions

Pressure 30.20 in
Visibility 10.0 miles
Clouds Mostly Cloudy 2000 ft
Overcast 2500 ft
Dew Point 60 °F
Humidity 82%
Rainfall 0.00 in
Snow Depth Not available.
UV 2 out of 12
Pollen 9.70 out of 12
Air Quality Not available.
Flu Activity Not available.
METAR KLEE 301653Z 31006KT 10SM BKN020 OVC025 18/13 A3020 RMK AO2 SLP225 T01780133

More Conditions Fewer Conditions

Nowcast | as of 12:10 PM EST on January 30, 2015

another front will keep US cool into tonight... a passing front will sweep over east central Florida this afternoon. It will pass with little notice aside from some higher to mid level cloudiness. Temperatures will remain on the cool side with lower to mid 60s west of I-4 and around 70 from the space coast southward. Over the Atlantic waters increasing winds will bring hazardous boating conditions beyond the immediate coastline Additional details...including graphics are available online at: http://www.Srh.NOAA.Gov/mlb/blog.Php

×

10-Day Weather Forecast

Almanac

Astronomy

Jan. 30, 2015 Rise Set
Actual Time
Civil Twilight
Nautical Twilight
Astronomical Twilight
Moon
Length of Visible Light
Length of Day
Tomorrow will be .
, % of the Moon is Illuminated

Today's Extremes

State Highs State Lows

Community

WunderPhotos

Upload Photos

1,791,826 photos uploaded!

WunderBlogs® & News

Nearby

Air Quality

  Air Quality AQ Index Pollutant
Not available.

Snow Depth

Station Depth Elevation

Earthquake Activity

City Distance Mag. Time & Date
Minimum magnitude displayed is 2.5.

Coastal Water Temperatures

Place Temperature

Nearby Weather Stations